Time;durP1;ratioP1;P1;durP2;ratioP2;P2;SDS_P1;SDS_P2;PMS_P1;PMS_P2;Temp;Humidity;BMP_temperature;BMP_pressure;BME280_temperature;BME280_humidity;BME280_pressure;Samples;Min_cycle;Max_cycle;Signal;HPM_P1;HPM_P2
2024/01/21 00:00:31;;;;;;;8.10;3.00;;;;;;;1.19;100.00;101860.64;52064;1259;1076889;-78
2024/01/21 00:03:37;;;;;;;9.10;2.90;;;;;;;1.15;100.00;101862.77;52045;1259;1076684;-79
2024/01/21 00:06:22;;;;;;;7.70;3.60;;;;;;;1.14;100.00;101872.19;52087;1256;1077091;-78
2024/01/21 00:09:08;;;;;;;11.80;3.50;;;;;;;1.13;100.00;101874.02;51983;1258;1077339;-79
2024/01/21 00:11:54;;;;;;;6.00;2.50;;;;;;;1.12;100.00;101883.03;52125;1256;1085487;-79
2024/01/21 00:14:40;;;;;;;13.40;3.30;;;;;;;1.09;100.00;101883.20;52153;1260;1076356;-79
2024/01/21 00:17:27;;;;;;;7.50;3.30;;;;;;;1.10;100.00;101894.99;51992;1257;1077206;-79
2024/01/21 00:20:13;;;;;;;7.70;2.60;;;;;;;1.08;100.00;101893.98;51761;1256;1078108;-79
2024/01/21 00:22:59;;;;;;;9.40;3.50;;;;;;;1.06;100.00;101896.25;52074;1256;1077897;-79
2024/01/21 00:25:44;;;;;;;9.50;4.60;;;;;;;1.04;100.00;101897.30;52208;1261;1076738;-79
2024/01/21 00:28:30;;;;;;;8.40;2.90;;;;;;;1.03;100.00;101902.79;52186;1261;1076988;-78
2024/01/21 00:31:16;;;;;;;5.80;2.70;;;;;;;1.02;100.00;101910.91;52028;1260;1077509;-78
2024/01/21 00:34:02;;;;;;;9.30;3.30;;;;;;;0.99;100.00;101913.06;52033;1260;1076117;-79
2024/01/21 00:36:48;;;;;;;5.10;2.40;;;;;;;0.98;100.00;101911.21;52073;1258;1076335;-78
2024/01/21 00:39:34;;;;;;;8.60;3.70;;;;;;;0.94;100.00;101917.60;52077;1262;1076261;-79
2024/01/21 00:42:20;;;;;;;5.70;2.80;;;;;;;0.90;100.00;101925.63;52123;1260;1076529;-79
2024/01/21 00:45:06;;;;;;;8.80;3.30;;;;;;;0.87;100.00;101929.96;52103;1257;1076467;-78
2024/01/21 00:47:52;;;;;;;7.30;2.30;;;;;;;0.89;100.00;101934.10;52180;1258;1076787;-79
2024/01/21 00:50:37;;;;;;;12.00;3.80;;;;;;;0.90;100.00;101938.98;52210;1264;1076671;-79
2024/01/21 00:53:23;;;;;;;7.60;3.20;;;;;;;0.89;100.00;101941.83;52193;1259;1077877;-78
2024/01/21 00:56:09;;;;;;;8.10;2.30;;;;;;;0.84;100.00;101950.02;52076;1262;1077132;-78
2024/01/21 00:58:55;;;;;;;8.70;2.70;;;;;;;0.82;100.00;101952.29;52138;1257;1076519;-79
2024/01/21 01:01:41;;;;;;;8.30;2.80;;;;;;;0.79;100.00;101954.70;52077;1260;1076828;-79
2024/01/21 01:04:27;;;;;;;7.60;2.80;;;;;;;0.78;100.00;101954.45;51967;1255;1076145;-79
2024/01/21 01:07:12;;;;;;;9.60;3.30;;;;;;;0.78;100.00;101950.92;52106;1264;1077225;-80
2024/01/21 01:09:59;;;;;;;10.50;3.00;;;;;;;0.77;100.00;101959.39;52168;1256;1076745;-79
2024/01/21 01:12:45;;;;;;;4.80;2.40;;;;;;;0.76;100.00;101963.20;52135;1260;1076883;-79
2024/01/21 01:15:31;;;;;;;6.40;2.60;;;;;;;0.73;100.00;101971.56;52116;1258;1076882;-80
2024/01/21 01:18:17;;;;;;;10.10;3.20;;;;;;;0.72;100.00;101976.95;52086;1262;1077260;-78
2024/01/21 01:21:03;;;;;;;9.80;3.20;;;;;;;0.68;100.00;101976.81;52102;1257;1076606;-78
2024/01/21 01:23:48;;;;;;;6.80;2.70;;;;;;;0.67;100.00;101977.73;52113;1258;1076753;-81
2024/01/21 01:26:34;;;;;;;9.60;3.70;;;;;;;0.66;100.00;101983.08;52085;1262;1076495;-80
2024/01/21 01:29:20;;;;;;;9.20;3.30;;;;;;;0.65;100.00;101983.85;52098;1260;1077152;-80
2024/01/21 01:32:06;;;;;;;8.40;3.00;;;;;;;0.63;100.00;101984.35;52201;1261;1077242;-80
2024/01/21 01:34:55;;;;;;;11.30;3.10;;;;;;;0.58;100.00;101983.23;52209;1257;1075984;-81
2024/01/21 01:37:40;;;;;;;7.80;3.00;;;;;;;0.51;100.00;101981.67;52271;1264;1076088;-79
2024/01/21 01:40:26;;;;;;;7.90;3.60;;;;;;;0.49;100.00;101982.34;52230;1260;1076823;-79
2024/01/21 01:43:12;;;;;;;6.30;2.80;;;;;;;0.49;100.00;101990.27;52215;1260;1076401;-80
2024/01/21 01:46:01;;;;;;;4.70;2.60;;;;;;;0.48;100.00;101993.10;52190;1260;1076817;-80
2024/01/21 01:48:48;;;;;;;6.80;3.20;;;;;;;0.48;100.00;101998.54;52225;1260;1076094;-79
2024/01/21 01:51:36;;;;;;;7.60;2.80;;;;;;;0.48;100.00;101996.13;52194;1258;1076711;-80
2024/01/21 01:54:24;;;;;;;3.90;2.50;;;;;;;0.46;99.72;101997.30;52191;1259;1076526;-80
2024/01/21 01:57:10;;;;;;;8.60;3.40;;;;;;;0.46;99.74;101998.88;52179;1261;1076026;-79
2024/01/21 01:59:59;;;;;;;6.40;2.60;;;;;;;0.44;99.56;102000.94;52164;1258;1077869;-80
2024/01/21 02:02:44;;;;;;;9.40;2.80;;;;;;;0.42;99.45;102008.41;52151;1258;1076815;-79
2024/01/21 02:05:30;;;;;;;7.60;2.90;;;;;;;0.39;99.20;102012.11;51761;1264;1077003;-78
2024/01/21 02:08:16;;;;;;;6.70;2.40;;;;;;;0.37;99.08;102012.75;52100;1260;1076548;-79
2024/01/21 02:11:03;;;;;;;4.40;2.20;;;;;;;0.36;99.00;102016.02;52167;1257;1076293;-80
2024/01/21 02:13:49;;;;;;;6.30;3.20;;;;;;;0.33;98.93;102022.29;52211;1258;1076181;-80
2024/01/21 02:16:35;;;;;;;10.50;3.30;;;;;;;0.31;98.81;102023.09;52170;1260;1077681;-79
2024/01/21 02:19:27;;;;;;;7.30;2.50;;;;;;;0.29;98.72;102027.29;52256;1257;1076901;-79
2024/01/21 02:22:14;;;;;;;8.40;3.70;;;;;;;0.28;98.59;102027.70;52199;1271;1077690;-78
2024/01/21 02:24:59;;;;;;;7.00;2.50;;;;;;;0.26;98.45;102032.90;52292;1260;1076682;-79
2024/01/21 02:27:46;;;;;;;8.60;4.10;;;;;;;0.24;98.36;102029.63;52234;1261;1076872;-79
2024/01/21 02:30:36;;;;;;;10.10;4.70;;;;;;;0.23;98.14;102028.18;52295;1258;1077306;-78
2024/01/21 02:33:22;;;;;;;7.30;4.00;;;;;;;0.18;97.87;102024.52;52499;1256;1076370;-79
2024/01/21 02:36:08;;;;;;;7.70;3.40;;;;;;;0.17;97.93;102022.33;52001;1257;1077023;-79
2024/01/21 02:38:54;;;;;;;10.50;2.60;;;;;;;0.11;97.42;102021.45;52178;1256;1076104;-79
2024/01/21 02:41:39;;;;;;;6.70;2.60;;;;;;;0.05;97.44;102021.81;52271;1261;1076759;-79
2024/01/21 02:44:25;;;;;;;7.60;2.50;;;;;;;-0.01;97.26;102025.98;52298;1260;1076317;-79
2024/01/21 02:47:11;;;;;;;9.40;3.10;;;;;;;-0.08;96.98;102034.44;52529;1260;1076472;-79
2024/01/21 02:49:57;;;;;;;9.60;3.70;;;;;;;-0.14;97.17;102031.25;52236;1257;1076360;-79
2024/01/21 02:52:43;;;;;;;8.40;3.80;;;;;;;-0.16;97.49;102029.98;52136;1257;1076618;-80
2024/01/21 02:55:29;;;;;;;9.20;4.20;;;;;;;-0.18;97.29;102038.34;52218;1260;1077908;-80
2024/01/21 02:58:15;;;;;;;8.90;4.00;;;;;;;-0.23;96.25;102036.65;52219;1260;1076252;-79
2024/01/21 03:01:01;;;;;;;10.80;3.90;;;;;;;-0.41;93.72;102041.02;52523;1257;1076587;-79
2024/01/21 03:03:46;;;;;;;11.50;4.40;;;;;;;-0.59;93.32;102038.77;52235;1261;1076657;-80
2024/01/21 03:06:32;;;;;;;10.20;3.90;;;;;;;-0.68;93.73;102050.70;52211;1260;1076818;-80
2024/01/21 03:09:18;;;;;;;7.40;3.70;;;;;;;-0.74;94.97;102052.04;52206;1261;1076352;-79
2024/01/21 03:12:04;;;;;;;7.80;4.20;;;;;;;-0.71;95.71;102053.86;52162;1261;1077460;-79
2024/01/21 03:14:49;;;;;;;7.80;4.00;;;;;;;-0.70;96.08;102059.92;52048;1261;1076783;-79
2024/01/21 03:17:35;;;;;;;8.00;3.70;;;;;;;-0.68;96.46;102056.68;52201;1258;1076778;-79
2024/01/21 03:20:21;;;;;;;7.70;3.90;;;;;;;-0.66;96.55;102057.43;52227;1257;1076238;-79
2024/01/21 03:23:07;;;;;;;8.30;3.90;;;;;;;-0.65;96.56;102063.52;52138;1258;1076274;-80
2024/01/21 03:25:52;;;;;;;7.70;3.40;;;;;;;-0.63;96.96;102064.96;52159;1260;1076586;-79
2024/01/21 03:28:38;;;;;;;8.50;3.90;;;;;;;-0.58;97.11;102072.45;52241;1269;1076949;-80
2024/01/21 03:31:24;;;;;;;9.60;3.80;;;;;;;-0.56;97.48;102079.36;52177;1260;1191970;-80
2024/01/21 03:34:10;;;;;;;8.30;4.20;;;;;;;-0.51;97.84;102079.82;52234;1260;1076929;-79
2024/01/21 03:36:55;;;;;;;10.30;3.90;;;;;;;-0.48;97.74;102087.00;52159;1264;1077071;-80
2024/01/21 03:39:41;;;;;;;10.90;4.90;;;;;;;-0.45;97.47;102087.37;52215;1257;1076371;-80
2024/01/21 03:42:27;;;;;;;10.10;3.90;;;;;;;-0.43;97.57;102082.89;52083;1258;1077426;-80
2024/01/21 03:45:13;;;;;;;8.30;3.70;;;;;;;-0.41;97.69;102082.96;52064;1258;1076597;-79
2024/01/21 03:47:59;;;;;;;6.10;3.50;;;;;;;-0.40;97.57;102089.02;52010;1260;1077477;-81
2024/01/21 03:50:44;;;;;;;7.50;3.50;;;;;;;-0.39;97.45;102091.11;52034;1260;1076572;-80
2024/01/21 03:53:30;;;;;;;6.30;4.30;;;;;;;-0.39;97.51;102092.98;51978;1261;1076903;-80
2024/01/21 03:56:19;;;;;;;8.30;3.70;;;;;;;-0.37;97.52;102092.89;52284;1256;1076687;-81
2024/01/21 03:59:05;;;;;;;11.60;3.90;;;;;;;-0.35;97.65;102089.63;52269;1257;1076249;-80
2024/01/21 04:01:50;;;;;;;7.80;4.40;;;;;;;-0.36;97.35;102087.75;52259;1261;1077268;-80
2024/01/21 04:04:36;;;;;;;7.10;3.70;;;;;;;-0.36;97.59;102087.42;52019;1257;1077017;-79
2024/01/21 04:07:22;;;;;;;11.20;5.00;;;;;;;-0.37;97.49;102089.91;52120;1257;1077005;-80
2024/01/21 04:10:10;;;;;;;9.40;4.60;;;;;;;-0.39;97.70;102084.25;52227;1256;1076932;-80
2024/01/21 04:12:55;;;;;;;11.80;5.60;;;;;;;-0.40;97.52;102088.69;52119;1263;1076744;-79
2024/01/21 04:15:41;;;;;;;10.60;5.70;;;;;;;-0.41;97.88;102091.73;52108;1260;1076058;-80
2024/01/21 04:18:27;;;;;;;10.70;6.00;;;;;;;-0.42;97.85;102093.33;52165;1257;1077279;-79
2024/01/21 04:21:18;;;;;;;12.50;6.90;;;;;;;-0.41;98.18;102091.16;52154;1261;1076415;-80
2024/01/21 04:24:05;;;;;;;16.60;7.80;;;;;;;-0.38;98.36;102092.98;52124;1261;1076246;-80
2024/01/21 04:26:50;;;;;;;15.40;7.60;;;;;;;-0.38;98.36;102096.45;52279;1258;1078161;-80
2024/01/21 04:29:36;;;;;;;14.50;7.90;;;;;;;-0.39;98.35;102093.34;52192;1261;1077585;-80
2024/01/21 04:32:22;;;;;;;16.40;7.80;;;;;;;-0.39;98.29;102096.54;52166;1257;1077664;-79
2024/01/21 04:35:08;;;;;;;14.30;8.10;;;;;;;-0.40;98.35;102100.98;52276;1257;1076716;-80
2024/01/21 04:37:54;;;;;;;13.60;7.90;;;;;;;-0.39;98.47;102100.89;51993;1256;1076827;-79
2024/01/21 04:40:40;;;;;;;14.00;7.60;;;;;;;-0.36;98.64;102103.73;52040;1257;1077320;-79
2024/01/21 04:43:26;;;;;;;13.30;7.80;;;;;;;-0.33;98.84;102106.36;52206;1257;1076538;-79
2024/01/21 04:46:11;;;;;;;16.60;8.90;;;;;;;-0.31;99.30;102109.94;52256;1255;1076871;-80
2024/01/21 04:48:57;;;;;;;17.10;9.50;;;;;;;-0.27;99.53;102108.00;52146;1269;1077319;-80
2024/01/21 04:51:44;;;;;;;18.30;9.10;;;;;;;-0.24;99.76;102110.30;52188;1258;1077193;-79
2024/01/21 04:54:29;;;;;;;19.90;9.70;;;;;;;-0.22;99.72;102105.11;52175;1256;1076707;-79
2024/01/21 04:57:15;;;;;;;18.90;9.90;;;;;;;-0.19;99.87;102110.02;52066;1258;1076694;-78
2024/01/21 05:00:01;;;;;;;18.10;10.30;;;;;;;-0.16;100.00;102104.23;52112;1257;1076728;-79
2024/01/21 05:02:47;;;;;;;25.50;12.60;;;;;;;-0.15;100.00;102105.75;52153;1256;1076899;-78
2024/01/21 05:05:34;;;;;;;21.40;11.60;;;;;;;-0.13;100.00;102107.92;52207;1258;1078372;-79
2024/01/21 05:08:20;;;;;;;26.80;13.00;;;;;;;-0.11;100.00;102112.02;52154;1260;1076248;-80
2024/01/21 05:11:06;;;;;;;20.70;11.80;;;;;;;-0.12;100.00;102107.66;52164;1260;1076683;-80
2024/01/21 05:13:51;;;;;;;19.10;11.90;;;;;;;-0.12;100.00;102108.75;52137;1258;1076657;-80
2024/01/21 05:16:40;;;;;;;28.20;13.90;;;;;;;-0.13;100.00;102111.05;52140;1260;1076567;-79
2024/01/21 05:19:26;;;;;;;27.40;14.30;;;;;;;-0.12;100.00;102109.09;52119;1264;1077461;-79
2024/01/21 05:22:13;;;;;;;26.70;15.70;;;;;;;-0.09;100.00;102112.96;52347;1260;1076872;-80
2024/01/21 05:24:58;;;;;;;31.10;16.30;;;;;;;-0.05;100.00;102107.66;52334;1263;1076749;-80
2024/01/21 05:27:44;;;;;;;32.70;17.20;;;;;;;-0.02;100.00;102111.52;52552;1257;1076820;-81
2024/01/21 05:30:30;;;;;;;32.90;17.60;;;;;;;-0.01;100.00;102115.68;52259;1257;1076334;-80
2024/01/21 05:33:16;;;;;;;35.50;19.80;;;;;;;0.02;100.00;102125.05;52265;1257;1076772;-80
2024/01/21 05:36:01;;;;;;;35.60;20.20;;;;;;;0.04;100.00;102127.02;52192;1258;1077424;-79
2024/01/21 05:38:47;;;;;;;37.90;19.90;;;;;;;0.08;100.00;102129.46;52130;1257;1076700;-80
2024/01/21 05:41:34;;;;;;;41.60;21.10;;;;;;;0.09;100.00;102129.20;52264;1258;1078032;-80
2024/01/21 05:44:20;;;;;;;37.90;20.70;;;;;;;0.13;100.00;102136.23;52501;1260;1078217;-81
2024/01/21 05:47:06;;;;;;;44.40;22.00;;;;;;;0.16;100.00;102133.75;52215;1257;1077406;-80
2024/01/21 05:49:52;;;;;;;38.50;20.40;;;;;;;0.19;100.00;102132.39;52164;1261;1076532;-80
2024/01/21 05:52:37;;;;;;;42.50;21.70;;;;;;;0.21;100.00;102136.79;52053;1258;1077092;-79
2024/01/21 05:55:23;;;;;;;41.10;22.20;;;;;;;0.24;100.00;102137.16;52042;1255;1077456;-78
2024/01/21 05:58:10;;;;;;;44.20;22.00;;;;;;;0.26;100.00;102143.55;52046;1260;1076318;-78
2024/01/21 06:00:55;;;;;;;43.60;21.20;;;;;;;0.27;100.00;102149.34;52223;1258;1076284;-78
2024/01/21 06:03:41;;;;;;;47.50;23.70;;;;;;;0.29;100.00;102147.30;52129;1257;1076648;-80
2024/01/21 06:06:27;;;;;;;46.90;24.10;;;;;;;0.31;100.00;102149.09;52056;1257;1076813;-79
2024/01/21 06:09:13;;;;;;;51.30;24.60;;;;;;;0.35;100.00;102151.17;51999;1256;1077015;-79
2024/01/21 06:11:59;;;;;;;52.30;24.00;;;;;;;0.37;100.00;102153.48;52147;1258;1077434;-79
2024/01/21 06:14:46;;;;;;;49.20;23.90;;;;;;;0.39;100.00;102156.02;51894;1256;1076753;-79
2024/01/21 06:17:32;;;;;;;51.40;25.30;;;;;;;0.41;100.00;102150.81;52068;1260;1077505;-78
2024/01/21 06:20:18;;;;;;;52.70;25.10;;;;;;;0.44;100.00;102152.77;52291;1258;1076065;-80
2024/01/21 06:23:04;;;;;;;49.60;23.20;;;;;;;0.47;100.00;102154.51;52268;1256;1076302;-80
2024/01/21 06:25:50;;;;;;;48.20;23.20;;;;;;;0.50;100.00;102158.75;52194;1257;1076312;-80
2024/01/21 06:28:36;;;;;;;49.50;24.10;;;;;;;0.51;100.00;102157.10;52176;1256;1076672;-81
2024/01/21 06:31:21;;;;;;;53.50;26.10;;;;;;;0.51;100.00;102164.49;52258;1261;1076753;-80
2024/01/21 06:34:07;;;;;;;45.50;24.20;;;;;;;0.48;100.00;102161.46;52492;1256;1078060;-81
2024/01/21 06:36:53;;;;;;;49.00;22.90;;;;;;;0.48;100.00;102166.27;52372;1257;1076403;-81
2024/01/21 06:39:38;;;;;;;51.50;23.70;;;;;;;0.46;100.00;102169.91;52571;1257;1076014;-81
2024/01/21 06:42:24;;;;;;;53.90;24.40;;;;;;;0.45;100.00;102183.10;52446;1263;1076890;-80
2024/01/21 06:45:13;;;;;;;44.00;24.50;;;;;;;0.47;100.00;102182.15;52598;1257;1077294;-80
2024/01/21 06:47:59;;;;;;;47.50;23.80;;;;;;;0.47;100.00;102186.70;52585;1257;1075971;-82
2024/01/21 06:50:48;;;;;;;49.10;24.00;;;;;;;0.49;100.00;102195.70;52617;1257;1077933;-81
2024/01/21 06:53:34;;;;;;;57.50;26.00;;;;;;;0.50;100.00;102198.09;52620;1258;1077175;-81
2024/01/21 06:56:20;;;;;;;52.90;24.90;;;;;;;0.53;100.00;102196.70;52590;1274;1076622;-81
2024/01/21 06:59:06;;;;;;;53.00;26.40;;;;;;;0.56;100.00;102197.27;52612;1257;1077285;-80
2024/01/21 07:01:51;;;;;;;65.30;25.40;;;;;;;0.57;100.00;102199.11;52438;1257;1076190;-81
2024/01/21 07:04:38;;;;;;;49.80;23.60;;;;;;;0.60;100.00;102200.91;52488;1260;1077533;-80
2024/01/21 07:07:24;;;;;;;47.80;23.60;;;;;;;0.64;100.00;102195.55;52483;1257;1075941;-81
2024/01/21 07:10:10;;;;;;;47.10;21.70;;;;;;;0.67;100.00;102201.90;52434;1260;1076636;-80
2024/01/21 07:12:56;;;;;;;49.40;23.10;;;;;;;0.70;100.00;102201.41;52533;1260;1076811;-81
2024/01/21 07:15:42;;;;;;;42.60;22.10;;;;;;;0.74;100.00;102202.73;52556;1257;1076635;-80
2024/01/21 07:18:28;;;;;;;47.70;23.10;;;;;;;0.78;100.00;102204.80;52488;1260;1076599;-81
2024/01/21 07:21:13;;;;;;;46.90;23.40;;;;;;;0.81;100.00;102208.16;52753;1256;1076795;-81
2024/01/21 07:23:59;;;;;;;48.10;23.20;;;;;;;0.84;100.00;102210.64;52633;1272;1076788;-80
2024/01/21 07:26:45;;;;;;;48.00;20.80;;;;;;;0.86;100.00;102216.13;52551;1260;1076267;-82
2024/01/21 07:29:31;;;;;;;50.50;24.00;;;;;;;0.89;100.00;102219.00;52511;1255;1076577;-82
2024/01/21 07:32:17;;;;;;;51.50;25.10;;;;;;;0.90;100.00;102219.42;52494;1257;1076252;-82
2024/01/21 07:35:03;;;;;;;50.10;22.50;;;;;;;0.93;100.00;102217.33;52605;1258;1077262;-81
2024/01/21 07:37:49;;;;;;;51.40;23.20;;;;;;;0.96;100.00;102216.81;52516;1257;1077260;-79
2024/01/21 07:40:35;;;;;;;43.20;22.10;;;;;;;1.00;100.00;102223.25;52179;1261;1076271;-87
2024/01/21 07:43:22;;;;;;;45.80;23.40;;;;;;;1.04;100.00;102225.48;52356;1257;1077094;-84
2024/01/21 07:46:08;;;;;;;49.80;23.10;;;;;;;1.07;100.00;102221.98;51947;1260;1077370;-86
2024/01/21 07:48:54;;;;;;;53.40;24.50;;;;;;;1.09;100.00;102222.23;52193;1258;1076766;-79
2024/01/21 07:51:40;;;;;;;53.50;24.10;;;;;;;1.11;100.00;102217.00;51914;1257;1076731;-80
2024/01/21 07:54:26;;;;;;;48.60;24.30;;;;;;;1.13;100.00;102220.77;51943;1262;1076850;-80
2024/01/21 07:57:12;;;;;;;54.70;25.80;;;;;;;1.15;100.00;102221.67;51977;1263;1076444;-81
2024/01/21 07:59:57;;;;;;;58.80;26.50;;;;;;;1.18;100.00;102223.48;51902;1263;1076424;-78
2024/01/21 08:02:44;;;;;;;54.90;26.00;;;;;;;1.22;100.00;102225.89;51996;1258;1077051;-85
2024/01/21 08:05:31;;;;;;;55.60;25.10;;;;;;;1.24;100.00;102227.35;52053;1265;1078275;-77
2024/01/21 08:08:17;;;;;;;52.80;26.80;;;;;;;1.28;100.00;102227.48;51696;1258;1077422;-77
2024/01/21 08:11:03;;;;;;;53.30;24.70;;;;;;;1.30;100.00;102227.66;51677;1258;1076970;-77
2024/01/21 08:13:48;;;;;;;58.80;25.60;;;;;;;1.33;100.00;102223.31;51715;1259;1076703;-76
2024/01/21 08:16:34;;;;;;;61.00;27.20;;;;;;;1.37;100.00;102226.95;51919;1264;1076733;-77
2024/01/21 08:19:20;;;;;;;52.80;27.90;;;;;;;1.42;100.00;102221.69;51889;1257;1076772;-78
2024/01/21 08:22:08;;;;;;;60.40;27.50;;;;;;;1.49;100.00;102223.20;51917;1263;1076476;-77
2024/01/21 08:24:54;;;;;;;54.20;26.00;;;;;;;1.52;100.00;102223.55;51873;1263;1076718;-77
2024/01/21 08:27:40;;;;;;;53.50;26.40;;;;;;;1.57;100.00;102221.17;51923;1260;1076678;-79
2024/01/21 08:30:26;;;;;;;53.50;26.10;;;;;;;1.61;100.00;102224.10;51855;1259;1076768;-77
2024/01/21 08:33:12;;;;;;;60.60;28.00;;;;;;;1.66;100.00;102227.71;51767;1256;1077222;-77
2024/01/21 08:35:57;;;;;;;55.70;26.20;;;;;;;1.70;100.00;102231.66;51931;1257;1077684;-77
2024/01/21 08:38:43;;;;;;;66.00;28.80;;;;;;;1.74;100.00;102238.47;51799;1260;1077596;-78
2024/01/21 08:41:29;;;;;;;54.70;27.60;;;;;;;1.77;100.00;102242.50;52044;1263;1076460;-79
2024/01/21 08:44:15;;;;;;;55.90;25.50;;;;;;;1.82;100.00;102245.42;51954;1257;1076912;-77
2024/01/21 08:47:02;;;;;;;60.30;27.10;;;;;;;1.84;100.00;102238.77;51851;1260;1076630;-77
2024/01/21 08:49:48;;;;;;;64.50;28.90;;;;;;;1.84;100.00;102242.96;51832;1257;1077808;-77
2024/01/21 08:52:34;;;;;;;59.70;27.80;;;;;;;1.85;100.00;102246.29;51902;1258;1077244;-78
2024/01/21 08:55:19;;;;;;;68.20;28.70;;;;;;;1.85;100.00;102242.21;51919;1257;1076094;-78
2024/01/21 08:58:05;;;;;;;61.50;27.80;;;;;;;1.86;100.00;102243.56;51811;1260;1076398;-78
2024/01/21 09:00:51;;;;;;;58.80;27.60;;;;;;;1.90;100.00;102246.16;51766;1260;1077882;-79
2024/01/21 09:03:37;;;;;;;65.80;28.60;;;;;;;1.89;100.00;102244.96;51801;1256;1079015;-78
2024/01/21 09:06:23;;;;;;;62.70;28.20;;;;;;;1.91;100.00;102241.48;51867;1260;1078373;-79
2024/01/21 09:09:11;;;;;;;67.20;29.10;;;;;;;1.94;100.00;102242.71;51829;1259;1077073;-78
2024/01/21 09:11:57;;;;;;;55.10;28.00;;;;;;;1.96;100.00;102242.45;51887;1257;1077997;-78
2024/01/21 09:14:43;;;;;;;60.40;29.80;;;;;;;1.97;100.00;102242.52;51979;1261;1077194;-78
2024/01/21 09:17:28;;;;;;;60.40;28.00;;;;;;;2.00;100.00;102243.73;51893;1260;1077704;-78
2024/01/21 09:20:15;;;;;;;60.70;28.50;;;;;;;2.01;100.00;102242.48;51731;1261;1076710;-78
2024/01/21 09:23:01;;;;;;;57.20;26.90;;;;;;;2.00;100.00;102241.83;51916;1261;1076171;-77
2024/01/21 09:25:47;;;;;;;61.50;28.70;;;;;;;2.00;100.00;102239.18;51752;1261;1077771;-78
2024/01/21 09:28:35;;;;;;;64.00;27.30;;;;;;;2.01;100.00;102232.46;51763;1260;1078255;-77
2024/01/21 09:31:21;;;;;;;62.60;28.30;;;;;;;2.03;100.00;102232.16;51800;1262;1077071;-78
2024/01/21 09:34:06;;;;;;;61.20;26.80;;;;;;;2.06;100.00;102236.52;51737;1257;1076551;-78
2024/01/21 09:36:53;;;;;;;65.30;29.90;;;;;;;2.14;100.00;102243.80;51785;1257;1076802;-78
2024/01/21 09:39:40;;;;;;;64.50;31.40;;;;;;;2.20;100.00;102247.86;51917;1261;1077200;-78
2024/01/21 09:42:26;;;;;;;58.70;28.30;;;;;;;2.24;100.00;102244.43;51870;1257;1076945;-77
2024/01/21 09:45:12;;;;;;;62.90;31.50;;;;;;;2.27;100.00;102243.14;51803;1277;1077783;-79
2024/01/21 09:48:00;;;;;;;56.20;29.40;;;;;;;2.31;100.00;102243.46;51984;1261;1076791;-79
2024/01/21 09:50:48;;;;;;;68.80;31.00;;;;;;;2.34;100.00;102234.25;51808;1263;1077111;-80
2024/01/21 09:53:35;;;;;;;62.50;30.20;;;;;;;2.38;100.00;102230.67;52223;1261;1077427;-79
2024/01/21 09:56:21;;;;;;;68.20;32.10;;;;;;;2.42;100.00;102233.11;52095;1263;1076669;-79
2024/01/21 09:59:09;;;;;;;67.80;31.00;;;;;;;2.43;100.00;102226.36;52262;1257;1076521;-79
2024/01/21 10:01:55;;;;;;;63.10;30.60;;;;;;;2.40;100.00;102228.84;52258;1258;1076412;-79
2024/01/21 10:04:40;;;;;;;62.10;29.50;;;;;;;2.39;100.00;102233.08;52154;1263;1077720;-78
2024/01/21 10:07:27;;;;;;;74.90;37.30;;;;;;;2.41;100.00;102235.42;52159;1258;1077064;-79
2024/01/21 10:10:13;;;;;;;76.90;35.50;;;;;;;2.44;100.00;102225.86;52438;1258;1076111;-79
2024/01/21 10:12:58;;;;;;;74.60;34.70;;;;;;;2.47;100.00;102225.01;52051;1263;1076647;-78
2024/01/21 10:15:44;;;;;;;69.60;33.40;;;;;;;2.51;100.00;102221.42;52026;1257;1076537;-78
2024/01/21 10:18:30;;;;;;;57.80;29.10;;;;;;;2.53;100.00;102219.69;51988;1257;1076819;-78
2024/01/21 10:21:18;;;;;;;54.50;29.60;;;;;;;2.53;100.00;102227.81;51764;1261;1076596;-78
2024/01/21 10:24:07;;;;;;;57.10;27.70;;;;;;;2.54;100.00;102224.95;51894;1257;1077615;-78
2024/01/21 10:26:53;;;;;;;53.70;26.70;;;;;;;2.52;100.00;102221.35;52042;1257;1076921;-79
2024/01/21 10:29:43;;;;;;;55.90;28.10;;;;;;;2.53;100.00;102221.66;51905;1261;1076054;-77
2024/01/21 10:32:29;;;;;;;60.90;28.20;;;;;;;2.54;100.00;102219.11;51956;1261;1076644;-78
2024/01/21 10:35:15;;;;;;;53.30;27.80;;;;;;;2.55;100.00;102217.27;52068;1257;1076773;-79
2024/01/21 10:38:05;;;;;;;54.30;27.30;;;;;;;2.56;100.00;102216.17;51914;1257;1076831;-78
2024/01/21 10:40:51;;;;;;;55.70;28.00;;;;;;;2.55;100.00;102211.10;51834;1263;1077090;-78
2024/01/21 10:43:40;;;;;;;60.60;28.70;;;;;;;2.55;100.00;102209.72;51907;1258;1077229;-77
2024/01/21 10:46:26;;;;;;;66.30;31.90;;;;;;;2.58;100.00;102205.63;51790;1257;1077468;-78
2024/01/21 10:49:13;;;;;;;68.50;30.30;;;;;;;2.63;100.00;102201.94;51887;1263;1077577;-77
2024/01/21 10:52:00;;;;;;;65.30;32.40;;;;;;;2.68;100.00;102202.69;51840;1258;1076480;-78
2024/01/21 10:54:47;;;;;;;63.30;30.50;;;;;;;2.71;100.00;102196.48;52154;1263;1076062;-77
2024/01/21 10:57:32;;;;;;;65.80;30.20;;;;;;;2.74;100.00;102199.11;51883;1258;1076744;-77
2024/01/21 11:00:18;;;;;;;64.60;30.30;;;;;;;2.75;100.00;102199.08;51848;1258;1077097;-78
2024/01/21 11:03:29;;;;;;;51.30;26.60;;;;;;;2.75;100.00;102195.31;51808;1261;1077477;-76
2024/01/21 11:06:16;;;;;;;62.30;29.00;;;;;;;2.91;100.00;102198.88;51938;1257;1076572;-78
2024/01/21 11:09:03;;;;;;;60.40;29.30;;;;;;;2.97;100.00;102196.59;51783;1258;1076502;-80
2024/01/21 11:11:51;;;;;;;50.00;25.60;;;;;;;2.97;100.00;102194.10;51807;1260;1076458;-77
2024/01/21 11:14:42;;;;;;;53.50;25.80;;;;;;;2.96;100.00;102200.37;52011;1262;1075947;-78
2024/01/21 11:17:28;;;;;;;58.90;27.20;;;;;;;2.93;100.00;102202.47;52190;1258;1076385;-79
2024/01/21 11:20:24;;;;;;;55.60;25.50;;;;;;;2.91;100.00;102196.39;52118;1257;1077807;-79
2024/01/21 11:23:16;;;;;;;57.70;26.80;;;;;;;2.93;100.00;102191.89;52426;1258;1076971;-79
2024/01/21 11:26:04;;;;;;;48.50;25.90;;;;;;;2.93;100.00;102186.71;52478;1257;1076641;-80
2024/01/21 11:28:50;;;;;;;49.70;27.20;;;;;;;2.96;100.00;102183.60;51952;1258;1079012;-79
2024/01/21 11:31:36;;;;;;;58.80;26.50;;;;;;;2.97;100.00;102185.02;51977;1262;1077583;-77
2024/01/21 11:34:23;;;;;;;57.80;26.90;;;;;;;2.99;100.00;102184.73;51889;1257;1078738;-79
2024/01/21 11:37:15;;;;;;;49.80;26.90;;;;;;;2.98;100.00;102186.13;51876;1258;1076796;-78
2024/01/21 11:40:01;;;;;;;;;;;;;;;2.97;100.00;102190.58;51807;1258;1076346;-78
2024/01/21 11:42:50;;;;;;;50.10;24.70;;;;;;;2.93;100.00;102190.15;51800;1257;1076708;-77
2024/01/21 11:45:38;;;;;;;51.40;24.90;;;;;;;2.90;100.00;102183.60;51896;1258;1077235;-78
2024/01/21 11:48:29;;;;;;;51.50;25.00;;;;;;;2.86;100.00;102192.16;51883;1258;1076636;-79
2024/01/21 11:51:14;;;;;;;53.10;24.70;;;;;;;2.84;100.00;102193.19;51879;1260;1077801;-78
2024/01/21 11:54:00;;;;;;;48.30;25.30;;;;;;;2.82;100.00;102188.89;52064;1262;1077706;-82
2024/01/21 11:56:46;;;;;;;48.30;24.60;;;;;;;2.78;99.99;102184.04;52233;1264;1076498;-82
2024/01/21 11:59:32;;;;;;;49.60;24.20;;;;;;;2.78;100.00;102186.36;52187;1256;1076679;-81
2024/01/21 12:02:19;;;;;;;50.40;22.40;;;;;;;2.79;100.00;102184.29;52392;1257;1077158;-84
2024/01/21 12:05:05;;;;;;;48.60;22.60;;;;;;;2.81;100.00;102185.43;52487;1260;1076932;-83
2024/01/21 12:07:51;;;;;;;44.20;22.90;;;;;;;2.81;100.00;102186.34;52185;1257;1077131;-81
2024/01/21 12:10:37;;;;;;;45.60;22.00;;;;;;;2.80;100.00;102178.09;52253;1263;1077277;-81
2024/01/21 12:13:23;;;;;;;44.00;21.40;;;;;;;2.79;100.00;102176.54;52301;1258;1076127;-81
2024/01/21 12:16:12;;;;;;;50.60;23.10;;;;;;;2.78;100.00;102170.80;52312;1260;1076528;-82
2024/01/21 12:18:58;;;;;;;53.90;24.10;;;;;;;2.77;100.00;102165.20;52162;1257;1076126;-83
2024/01/21 12:21:44;;;;;;;47.10;25.00;;;;;;;2.79;100.00;102154.89;52189;1258;1076171;-81
2024/01/21 12:24:30;;;;;;;47.00;23.70;;;;;;;2.80;100.00;102141.75;52410;1257;1077268;-85